Silver Star, MT (59751)

8:01 AM MDT on September 17, 2014 (GMT -0600)
Mooney | Change Station
CLOSE
Current Station
Airport
Location: Butte,
Elevation: 5545 ft
Nearby Weather Stations

Elev 5545 ft 45.95 °N, 112.50 °W | Updated 8 minutes ago

Clear
Clear
40 °F
Feels Like 40 °F
N
0
Wind Variable Wind from North

Today
High -- | Low -- °F
--% Chance of Precip.
Yesterday
High -- | Low -- °F
Precip. -- in
7:09 AM 7:36 PM
Waning Crescent, 36% visible
Pressure 29.98 in
Visibility 10.0 miles
Clouds Clear
Dew Point 37 °F
Humidity 89%
Rainfall 0.00 in
Snow Depth 0 in , 0 in , 0 in
UV 0 out of 12
Pollen 6.00 out of 12
Air Quality Not available.
Flu Activity Not available.
METAR KBTM 171353Z AUTO 00000KT 10SM CLR 04/03 A3007 RMK AO2 SLP151 T00440028

More Conditions Fewer Conditions

Pressure 29.98 in
Visibility 10.0 miles
Clouds Clear
Dew Point 37 °F
Humidity 89%
Rainfall 0.00 in
Snow Depth 0 in , 0 in , 0 in
UV 0 out of 12
Pollen 6.00 out of 12
Air Quality Not available.
Flu Activity Not available.
METAR KBTM 171353Z AUTO 00000KT 10SM CLR 04/03 A3007 RMK AO2 SLP151 T00440028

More Conditions Fewer Conditions

10-Day Weather Forecast

Almanac

Astronomy

Sep. 17, 2014 Rise Set
Actual Time 7:09 AM MDT 7:36 PM MDT
Civil Twilight 6:40 AM MDT 8:05 PM MDT
Nautical Twilight 6:04 AM MDT 8:41 PM MDT
Astronomical Twilight 5:28 AM MDT 9:17 PM MDT
Moon 1:00 AM MDT 4:01 PM MDT
Length of Visible Light 13h 25m
Length of Day
12h 26m
Tomorrow will be 3m 11s shorter.
Waning Crescent, 36% of the Moon is Illuminated
Today
Waning Crescent
Sep 24
New
Oct 1
First Quarter
Oct 8
Full
Oct 15
Last Quarter

Today's Extremes

State Highs State Lows

Community

WunderPhotos

Upload Photos

1,754,040 photos uploaded!

WunderBlogs® & News

Nearby

Snow Depth

Station Depth Elevation
Lower Twin 0 in 7900 ft
Flattop Mountain 0 in 6300 ft
Dupuyer Creek 0 in 5750 ft
Shower Falls 1 in 8100 ft
North Fork Jocko 0 in 6330 ft

Earthquake Activity

City Distance Mag. Time & Date
No recent earthquake activity has been reported nearby.
Minimum magnitude displayed is 2.5.

Coastal Water Temperatures

Place Temperature
No Stations Reporting

Nearby Weather Stations